Time,TemperatureF,DewpointF,PressureIn,WindDirection,WindDirectionDegrees,WindSpeedMPH,WindSpeedGustMPH,Humidity,HourlyPrecipIn,Conditions,Clouds,dailyrainin,SoftwareType,DateUTC
2013-04-10 00:00:00,5.4,1.0,29.45,West,259,4.0,9.0,81,0.00,,,0.00,weatherlink.com 1.10,2013-04-10 08:00:00,
2013-04-10 00:15:00,5.1,1.0,29.47,SW,231,2.0,8.0,81,0.00,,,0.00,weatherlink.com 1.10,2013-04-10 08:15:00,
2013-04-10 00:30:00,4.8,0.0,29.48,West,281,2.0,5.0,81,0.00,,,0.00,weatherlink.com 1.10,2013-04-10 08:30:00,
2013-04-10 00:45:00,4.6,0.0,29.49,West,269,3.0,5.0,81,0.00,,,0.00,weatherlink.com 1.10,2013-04-10 08:45:00,
2013-04-10 01:00:00,4.3,0.0,29.50,West,278,1.0,7.0,81,0.00,,,0.00,weatherlink.com 1.10,2013-04-10 09:00:00,
2013-04-10 01:15:00,4.2,0.0,29.51,West,260,6.0,8.0,81,0.00,,,0.00,weatherlink.com 1.10,2013-04-10 09:15:00,
2013-04-10 01:30:00,3.9,0.0,29.52,SSW,211,1.0,8.0,82,0.00,,,0.00,weatherlink.com 1.10,2013-04-10 09:30:00,
2013-04-10 01:46:00,3.8,-1.0,29.53,West,273,2.0,5.0,82,0.00,,,0.00,weatherlink.com 1.10,2013-04-10 09:46:00,
2013-04-10 02:01:00,3.7,-1.0,29.54,WNW,293,0.0,5.0,82,0.00,,,0.00,weatherlink.com 1.10,2013-04-10 10:01:00,
2013-04-10 02:31:00,3.2,-1.0,29.56,West,265,0.0,4.0,81,0.00,,,0.00,weatherlink.com 1.10,2013-04-10 10:31:00,
2013-04-10 02:46:00,3.1,-2.0,29.57,SW,215,0.0,2.0,80,0.00,,,0.00,weatherlink.com 1.10,2013-04-10 10:46:00,
2013-04-10 03:01:00,2.8,-2.0,29.58,WNW,289,1.0,3.0,80,0.00,,,0.00,weatherlink.com 1.10,2013-04-10 11:01:00,
2013-04-10 03:16:00,2.6,-2.0,29.59,West,267,0.0,3.0,80,0.00,,,0.00,weatherlink.com 1.10,2013-04-10 11:16:00,
2013-04-10 03:31:00,2.3,-2.0,29.59,NW,309,2.0,2.0,81,0.00,,,0.00,weatherlink.com 1.10,2013-04-10 11:31:00,
2013-04-10 03:46:00,2.3,-3.0,29.60,West,262,2.0,4.0,80,0.00,,,0.00,weatherlink.com 1.10,2013-04-10 11:46:00,
2013-04-10 04:16:00,2.2,-3.0,29.61,WSW,250,0.0,3.0,80,0.00,,,0.00,weatherlink.com 1.10,2013-04-10 12:16:00,
2013-04-10 04:32:00,1.9,-3.0,29.62,WSW,255,0.0,2.0,81,0.00,,,0.00,weatherlink.com 1.10,2013-04-10 12:32:00,
2013-04-10 04:46:00,1.5,-3.0,29.62,West,277,0.0,1.0,82,0.00,,,0.00,weatherlink.com 1.10,2013-04-10 12:46:00,
2013-04-10 05:02:00,1.4,-3.0,29.62,WNW,283,0.0,1.0,82,0.00,,,0.00,weatherlink.com 1.10,2013-04-10 13:02:00,
2013-04-10 05:17:00,1.0,-3.0,29.63,SW,236,0.0,0.0,83,0.00,,,0.00,weatherlink.com 1.10,2013-04-10 13:17:00,
2013-04-10 05:32:00,1.0,-3.0,29.64,West,269,0.0,1.0,82,0.00,,,0.00,weatherlink.com 1.10,2013-04-10 13:32:00,
2013-04-10 06:02:00,0.9,-4.0,29.66,WSW,253,0.0,1.0,81,0.00,,,0.00,weatherlink.com 1.10,2013-04-10 14:02:00,
2013-04-10 06:17:00,0.2,-4.0,29.66,WSW,253,0.0,0.0,82,0.00,,,0.00,weatherlink.com 1.10,2013-04-10 14:17:00,
2013-04-10 06:32:00,0.2,-4.0,29.67,NW,319,0.0,0.0,82,0.00,,,0.00,weatherlink.com 1.10,2013-04-10 14:32:00,
2013-04-10 06:47:00,-0.3,-5.0,29.68,SSE,153,0.0,0.0,82,0.00,,,0.00,weatherlink.com 1.10,2013-04-10 14:47:00,
2013-04-10 07:02:00,-0.7,-5.0,29.69,SSE,152,0.0,0.0,81,0.00,,,0.00,weatherlink.com 1.10,2013-04-10 15:02:00,
2013-04-10 07:17:00,-0.8,-5.0,29.70,WSW,252,0.0,0.0,81,0.00,,,0.00,weatherlink.com 1.10,2013-04-10 15:17:00,
2013-04-10 07:32:00,-0.7,-5.0,29.70,West,260,1.0,2.0,81,0.00,,,0.00,weatherlink.com 1.10,2013-04-10 15:32:00,
2013-04-10 07:47:00,-0.5,-5.0,29.71,SE,129,0.0,0.0,81,0.00,,,0.00,weatherlink.com 1.10,2013-04-10 15:47:00,
2013-04-10 08:02:00,0.1,-5.0,29.72,WSW,243,0.0,1.0,80,0.00,,,0.00,weatherlink.com 1.10,2013-04-10 16:02:00,
2013-04-10 08:18:00,1.7,-3.0,29.72,SW,236,0.0,0.0,79,0.00,,,0.00,weatherlink.com 1.10,2013-04-10 16:18:00,
2013-04-10 08:33:00,2.8,-3.0,29.73,SSE,163,0.0,2.0,75,0.00,,,0.00,weatherlink.com 1.10,2013-04-10 16:33:00,
2013-04-10 08:48:00,3.6,-3.0,29.73,SW,214,0.0,1.0,74,0.00,,,0.00,weatherlink.com 1.10,2013-04-10 16:48:00,
2013-04-10 09:03:00,4.3,-3.0,29.74,South,178,0.0,0.0,73,0.00,,,0.00,weatherlink.com 1.10,2013-04-10 17:03:00,
2013-04-10 09:18:00,4.6,-3.0,29.74,South,179,0.0,1.0,72,0.00,,,0.00,weatherlink.com 1.10,2013-04-10 17:18:00,
2013-04-10 09:33:00,6.4,-2.0,29.75,SSW,195,0.0,2.0,69,0.00,,,0.00,weatherlink.com 1.10,2013-04-10 17:33:00,
2013-04-10 09:48:00,7.6,-1.0,29.75,SW,229,0.0,3.0,67,0.00,,,0.00,weatherlink.com 1.10,2013-04-10 17:48:00,
2013-04-10 10:03:00,8.5,-1.0,29.76,WSW,253,0.0,2.0,65,0.00,,,0.00,weatherlink.com 1.10,2013-04-10 18:03:00,
2013-04-10 10:18:00,7.0,-3.0,29.76,West,271,1.0,3.0,65,0.00,,,0.00,weatherlink.com 1.10,2013-04-10 18:18:00,
2013-04-10 10:33:00,6.4,-2.0,29.77,East,101,1.0,3.0,69,0.00,,,0.00,weatherlink.com 1.10,2013-04-10 18:33:00,
2013-04-10 10:48:00,6.1,-1.0,29.77,SSW,211,3.0,5.0,72,0.00,,,0.00,weatherlink.com 1.10,2013-04-10 18:48:00,
2013-04-10 11:03:00,7.3,-1.0,29.78,SW,215,0.0,3.0,69,0.00,,,0.00,weatherlink.com 1.10,2013-04-10 19:03:00,
2013-04-10 11:18:00,7.6,0.0,29.78,WNW,298,5.0,8.0,70,0.00,,,0.00,weatherlink.com 1.10,2013-04-10 19:18:00,
2013-04-10 11:33:00,8.7,1.0,29.79,NW,319,1.0,4.0,71,0.00,,,0.00,weatherlink.com 1.10,2013-04-10 19:33:00,
2013-04-10 11:49:00,9.2,1.0,29.79,South,169,2.0,5.0,69,0.00,,,0.00,weatherlink.com 1.10,2013-04-10 19:49:00,
2013-04-10 12:04:00,8.5,0.0,29.79,NW,312,2.0,6.0,67,0.00,,,0.00,weatherlink.com 1.10,2013-04-10 20:04:00,
2013-04-10 12:19:00,11.0,2.0,29.80,SE,141,2.0,5.0,67,0.00,,,0.00,weatherlink.com 1.10,2013-04-10 20:19:00,
2013-04-10 12:34:00,10.0,-1.0,29.80,NW,314,4.0,8.0,61,0.00,,,0.00,weatherlink.com 1.10,2013-04-10 20:34:00,
2013-04-10 12:49:00,11.2,0.0,29.80,West,276,3.0,12.0,61,0.00,,,0.00,weatherlink.com 1.10,2013-04-10 20:49:00,
2013-04-10 13:04:00,11.2,-1.0,29.81,WSW,249,3.0,7.0,58,0.00,,,0.00,weatherlink.com 1.10,2013-04-10 21:04:00,
2013-04-10 13:19:00,11.7,1.0,29.81,South,171,2.0,4.0,61,0.00,,,0.00,weatherlink.com 1.10,2013-04-10 21:19:00,
2013-04-10 13:34:00,13.0,1.0,29.82,SSE,162,2.0,6.0,59,0.00,,,0.00,weatherlink.com 1.10,2013-04-10 21:34:00,
2013-04-10 13:49:00,14.1,2.0,29.82,SSE,150,3.0,6.0,58,0.00,,,0.00,weatherlink.com 1.10,2013-04-10 21:49:00,
2013-04-10 14:04:00,13.7,1.0,29.82,WNW,287,4.0,5.0,58,0.00,,,0.00,weatherlink.com 1.10,2013-04-10 22:04:00,
2013-04-10 14:19:00,14.5,2.0,29.83,East,101,2.0,7.0,58,0.00,,,0.00,weatherlink.com 1.10,2013-04-10 22:19:00,
2013-04-10 14:35:00,14.6,2.0,29.83,North,352,1.0,5.0,57,0.00,,,0.00,weatherlink.com 1.10,2013-04-10 22:35:00,
2013-04-10 14:49:00,14.3,1.0,29.83,WSW,249,2.0,8.0,56,0.00,,,0.00,weatherlink.com 1.10,2013-04-10 22:49:00,
2013-04-10 15:05:00,15.3,3.0,29.83,SE,142,0.0,4.0,59,0.00,,,0.00,weatherlink.com 1.10,2013-04-10 23:05:00,
2013-04-10 15:20:00,16.6,3.0,29.84,SE,132,3.0,3.0,54,0.00,,,0.00,weatherlink.com 1.10,2013-04-10 23:20:00,
2013-04-10 15:35:00,15.5,1.0,29.84,WNW,299,2.0,4.0,53,0.00,,,0.00,weatherlink.com 1.10,2013-04-10 23:35:00,
2013-04-10 15:50:00,13.6,0.0,29.84,West,266,1.0,6.0,56,0.00,,,0.00,weatherlink.com 1.10,2013-04-10 23:50:00,
2013-04-10 16:05:00,13.0,0.0,29.84,ESE,116,0.0,6.0,57,0.00,,,0.00,weatherlink.com 1.10,2013-04-11 00:05:00,
2013-04-10 16:20:00,13.6,2.0,29.84,West,264,2.0,6.0,59,0.00,,,0.00,weatherlink.com 1.10,2013-04-11 00:20:00,
2013-04-10 16:35:00,13.6,0.0,29.84,West,259,1.0,7.0,56,0.00,,,0.00,weatherlink.com 1.10,2013-04-11 00:35:00,
2013-04-10 16:50:00,15.1,2.0,29.85,NNW,342,0.0,5.0,55,0.00,,,0.00,weatherlink.com 1.10,2013-04-11 00:50:00,
2013-04-10 17:05:00,14.6,1.0,29.85,West,278,3.0,8.0,54,0.00,,,0.00,weatherlink.com 1.10,2013-04-11 01:05:00,
2013-04-10 17:20:00,14.5,1.0,29.85,SE,127,2.0,7.0,54,0.00,,,0.00,weatherlink.com 1.10,2013-04-11 01:20:00,
2013-04-10 17:35:00,14.7,1.0,29.85,WNW,298,0.0,8.0,55,0.00,,,0.00,weatherlink.com 1.10,2013-04-11 01:35:00,
2013-04-10 17:50:00,14.6,1.0,29.86,West,269,3.0,7.0,54,0.00,,,0.00,weatherlink.com 1.10,2013-04-11 01:50:00,
2013-04-10 18:06:00,14.2,-1.0,29.86,SW,220,1.0,8.0,52,0.00,,,0.00,weatherlink.com 1.10,2013-04-11 02:06:00,
2013-04-10 18:21:00,13.7,-1.0,29.86,WNW,295,3.0,8.0,52,0.00,,,0.00,weatherlink.com 1.10,2013-04-11 02:21:00,
2013-04-10 18:36:00,13.5,-1.0,29.87,West,267,2.0,5.0,53,0.00,,,0.00,weatherlink.com 1.10,2013-04-11 02:36:00,
2013-04-10 18:51:00,13.0,-2.0,29.87,WNW,291,1.0,9.0,51,0.00,,,0.00,weatherlink.com 1.10,2013-04-11 02:51:00,
2013-04-10 19:21:00,12.4,-2.0,29.87,West,259,2.0,8.0,52,0.00,,,0.00,weatherlink.com 1.10,2013-04-11 03:21:00,
2013-04-10 19:36:00,11.7,-2.0,29.88,WSW,255,4.0,7.0,54,0.00,,,0.00,weatherlink.com 1.10,2013-04-11 03:36:00,
2013-04-10 19:51:00,10.6,-3.0,29.88,West,278,2.0,5.0,54,0.00,,,0.00,weatherlink.com 1.10,2013-04-11 03:51:00,
2013-04-10 20:06:00,9.2,-3.0,29.89,WNW,286,4.0,6.0,57,0.00,,,0.00,weatherlink.com 1.10,2013-04-11 04:06:00,
2013-04-10 20:22:00,8.1,-4.0,29.89,West,274,2.0,7.0,58,0.00,,,0.00,weatherlink.com 1.10,2013-04-11 04:22:00,
2013-04-10 20:37:00,7.5,-4.0,29.90,WSW,237,0.0,2.0,61,0.00,,,0.00,weatherlink.com 1.10,2013-04-11 04:37:00,
2013-04-10 20:52:00,6.9,-4.0,29.90,West,281,0.0,3.0,60,0.00,,,0.00,weatherlink.com 1.10,2013-04-11 04:52:00,
2013-04-10 21:07:00,6.3,-5.0,29.91,West,273,3.0,4.0,61,0.00,,,0.00,weatherlink.com 1.10,2013-04-11 05:07:00,
2013-04-10 21:22:00,5.8,-5.0,29.91,West,276,1.0,3.0,62,0.00,,,0.00,weatherlink.com 1.10,2013-04-11 05:22:00,
2013-04-10 21:37:00,5.3,-5.0,29.92,WNW,283,0.0,3.0,62,0.00,,,0.00,weatherlink.com 1.10,2013-04-11 05:37:00,
2013-04-10 21:52:00,4.1,-5.0,29.93,NW,315,0.0,4.0,65,0.00,,,0.00,weatherlink.com 1.10,2013-04-11 05:52:00,
2013-04-10 22:07:00,3.3,-5.0,29.93,NW,319,0.0,1.0,67,0.00,,,0.00,weatherlink.com 1.10,2013-04-11 06:07:00,
2013-04-10 22:22:00,2.2,-6.0,29.93,NW,319,0.0,0.0,68,0.00,,,0.00,weatherlink.com 1.10,2013-04-11 06:22:00,
2013-04-10 22:37:00,1.5,-7.0,29.94,West,267,0.0,3.0,69,0.00,,,0.00,weatherlink.com 1.10,2013-04-11 06:37:00,
2013-04-10 22:52:00,1.0,-7.0,29.95,West,267,0.0,1.0,70,0.00,,,0.00,weatherlink.com 1.10,2013-04-11 06:52:00,
2013-04-10 23:07:00,0.8,-7.0,29.95,West,269,0.0,1.0,71,0.00,,,0.00,weatherlink.com 1.10,2013-04-11 07:07:00,
2013-04-10 23:22:00,0.0,-7.0,29.96,West,278,0.0,2.0,72,0.00,,,0.00,weatherlink.com 1.10,2013-04-11 07:22:00,
2013-04-10 23:38:00,-0.1,-7.0,29.96,WNW,284,0.0,1.0,72,0.00,,,0.00,weatherlink.com 1.10,2013-04-11 07:38:00,
2013-04-10 23:53:00,-0.3,-8.0,29.97,WNW,283,0.0,1.0,71,0.00,,,0.00,weatherlink.com 1.10,2013-04-11 07:53:00,